Time;durP1;ratioP1;P1;durP2;ratioP2;P2;SDS_P1;SDS_P2;PMS_P1;PMS_P2;Temp;Humidity;BMP_temperature;BMP_pressure;BME280_temperature;BME280_humidity;BME280_pressure;Samples;Min_cycle;Max_cycle;Signal;HPM_P1;HPM_P2
2021/06/25 00:00:33;;;;;;;4.65;2.65;;;15.80;94.60;;;;;;5026470;28;20448;-79
2021/06/25 00:02:58;;;;;;;5.13;2.13;;;15.80;94.70;;;;;;5043072;28;20026;-79
2021/06/25 00:05:24;;;;;;;7.45;2.88;;;15.80;94.70;;;;;;5043178;28;20030;-79
2021/06/25 00:07:50;;;;;;;9.60;2.47;;;15.80;94.70;;;;;;5026331;28;20026;-79
2021/06/25 00:10:16;;;;;;;5.20;2.35;;;15.80;94.70;;;;;;5042849;28;20053;-79
2021/06/25 00:12:41;;;;;;;6.10;2.38;;;15.90;94.70;;;;;;5026264;28;20388;-79
2021/06/25 00:15:08;;;;;;;6.88;2.67;;;15.80;94.60;;;;;;5043007;28;20026;-78
2021/06/25 00:17:35;;;;;;;7.78;2.15;;;15.90;94.60;;;;;;5009922;28;20026;-79
2021/06/25 00:20:00;;;;;;;7.43;2.35;;;15.90;94.50;;;;;;5026398;28;20029;-80
2021/06/25 00:22:26;;;;;;;6.00;2.97;;;15.80;94.50;;;;;;5026329;28;20029;-79
2021/06/25 00:24:52;;;;;;;4.55;2.13;;;15.90;94.50;;;;;;5026298;28;20037;-79
2021/06/25 00:27:18;;;;;;;5.35;2.10;;;15.90;94.50;;;;;;5026143;28;20038;-80
2021/06/25 00:29:44;;;;;;;8.25;2.25;;;15.90;94.40;;;;;;5043125;28;20112;-80
2021/06/25 00:32:10;;;;;;;6.75;2.70;;;15.80;94.30;;;;;;5026269;28;20121;-79
2021/06/25 00:34:35;;;;;;;7.90;2.35;;;15.80;94.20;;;;;;5042769;28;20026;-78
2021/06/25 00:37:01;;;;;;;5.63;2.35;;;15.70;94.10;;;;;;5026226;28;20026;-77
2021/06/25 00:39:27;;;;;;;11.23;3.28;;;15.60;94.20;;;;;;5042944;28;20042;-78
2021/06/25 00:41:53;;;;;;;7.28;2.03;;;15.50;94.20;;;;;;5026120;28;20034;-80
2021/06/25 00:44:20;;;;;;;12.68;2.60;;;15.50;94.20;;;;;;5011083;28;20033;-79
2021/06/25 00:46:46;;;;;;;7.55;2.60;;;15.40;94.30;;;;;;5009732;28;20049;-80
2021/06/25 00:49:13;;;;;;;9.00;2.33;;;15.50;94.40;;;;;;5011115;28;20034;-79
2021/06/25 00:51:40;;;;;;;7.63;2.42;;;15.40;94.30;;;;;;5026051;28;20065;-79
2021/06/25 00:54:07;;;;;;;8.85;2.13;;;15.40;94.60;;;;;;5042799;28;20037;-78
2021/06/25 00:56:33;;;;;;;5.35;1.95;;;15.40;94.40;;;;;;5026051;28;20392;-78
2021/06/25 00:59:00;;;;;;;8.48;2.78;;;15.40;94.40;;;;;;5026009;28;20489;-78
2021/06/25 01:01:26;;;;;;;4.80;1.98;;;15.40;94.30;;;;;;5025897;28;20468;-80
2021/06/25 01:03:51;;;;;;;6.18;2.28;;;15.40;94.40;;;;;;5042755;28;20034;-78
2021/06/25 01:06:17;;;;;;;6.55;2.33;;;15.40;94.50;;;;;;5042507;28;20125;-80
2021/06/25 01:08:44;;;;;;;6.60;2.17;;;15.40;94.40;;;;;;5011336;28;20092;-80
2021/06/25 01:11:10;;;;;;;6.10;2.45;;;15.40;94.30;;;;;;5046141;28;20130;-79
2021/06/25 01:13:40;;;;;;;5.43;2.10;;;15.40;94.30;;;;;;5029550;28;20125;-79
2021/06/25 01:16:06;;;;;;;7.07;2.38;;;15.40;94.40;;;;;;5046221;28;20018;-78
2021/06/25 01:18:33;;;;;;;5.35;2.30;;;15.30;94.30;;;;;;5045954;28;20054;-79
2021/06/25 01:21:00;;;;;;;8.45;2.22;;;15.30;94.40;;;;;;5045936;28;20412;-78
2021/06/25 01:23:26;;;;;;;6.93;2.45;;;15.30;94.50;;;;;;5045701;28;20081;-79
2021/06/25 01:25:53;;;;;;;7.05;1.77;;;15.30;94.50;;;;;;5012778;28;20030;-79
2021/06/25 01:28:19;;;;;;;5.25;2.33;;;15.20;94.30;;;;;;5014023;28;20488;-78
2021/06/25 01:30:47;;;;;;;4.20;1.63;;;15.10;94.30;;;;;;5045847;28;20026;-78
2021/06/25 01:33:16;;;;;;;6.10;1.92;;;15.10;94.30;;;;;;5014049;28;20076;-79
2021/06/25 01:35:43;;;;;;;4.13;1.98;;;15.00;94.20;;;;;;5045782;28;20538;-79
2021/06/25 01:38:11;;;;;;;4.30;2.03;;;14.90;94.10;;;;;;5014296;28;20453;-80
2021/06/25 01:40:38;;;;;;;4.57;1.90;;;14.90;93.90;;;;;;5012846;28;20153;-80
2021/06/25 01:43:06;;;;;;;8.20;2.20;;;14.80;93.80;;;;;;5028717;28;20045;-79
2021/06/25 01:45:33;;;;;;;5.85;2.53;;;14.70;93.60;;;;;;5013708;28;20029;-78
2021/06/25 01:48:00;;;;;;;6.63;2.50;;;14.60;93.50;;;;;;5028906;28;20595;-79
2021/06/25 01:50:29;;;;;;;6.82;2.25;;;14.60;93.40;;;;;;5045192;28;20113;-79
2021/06/25 01:53:00;;;;;;;5.03;2.17;;;14.60;93.30;;;;;;5013677;28;20022;-78
2021/06/25 01:55:28;;;;;;;7.22;2.50;;;14.70;93.10;;;;;;5013553;28;20018;-78
2021/06/25 01:57:54;;;;;;;6.68;1.67;;;14.70;93.10;;;;;;5013493;28;20156;-79
2021/06/25 02:00:21;;;;;;;10.07;2.78;;;14.70;93.00;;;;;;5045222;28;20029;-78
2021/06/25 02:02:47;;;;;;;6.40;1.90;;;14.70;92.90;;;;;;5013328;28;20030;-80
2021/06/25 02:05:15;;;;;;;5.68;2.20;;;14.70;92.70;;;;;;5028425;28;20030;-80
2021/06/25 02:07:41;;;;;;;6.53;2.00;;;14.80;92.70;;;;;;5013201;28;20113;-80
2021/06/25 02:10:10;;;;;;;4.72;1.90;;;14.80;92.60;;;;;;5028309;28;20133;-79
2021/06/25 02:12:37;;;;;;;13.80;3.60;;;14.80;92.50;;;;;;5028300;28;20411;-80
2021/06/25 02:15:05;;;;;;;8.32;2.30;;;14.80;92.30;;;;;;5028313;28;20053;-78
2021/06/25 02:17:31;;;;;;;7.53;2.25;;;14.80;92.30;;;;;;5012977;28;20436;-79
2021/06/25 02:19:57;;;;;;;9.60;2.70;;;14.80;92.40;;;;;;5044307;28;20026;-78
2021/06/25 02:22:22;;;;;;;7.70;1.90;;;14.80;92.20;;;;;;5044309;28;20394;-80
2021/06/25 02:24:48;;;;;;;5.18;1.85;;;14.80;92.20;;;;;;5028082;28;20652;-78
2021/06/25 02:27:14;;;;;;;7.90;2.35;;;14.80;92.10;;;;;;5044576;28;20393;-78
2021/06/25 02:29:39;;;;;;;7.25;1.98;;;14.80;92.00;;;;;;5028027;28;20117;-79
2021/06/25 02:32:05;;;;;;;6.57;1.60;;;14.80;91.80;;;;;;5044498;28;20030;-80
2021/06/25 02:34:31;;;;;;;6.90;1.75;;;14.80;91.50;;;;;;5028228;28;20064;-78
2021/06/25 02:36:57;;;;;;;8.35;2.38;;;14.70;91.50;;;;;;5044502;28;20026;-79
2021/06/25 02:39:23;;;;;;;5.38;1.75;;;14.70;91.50;;;;;;5044478;28;20105;-79
2021/06/25 02:41:49;;;;;;;6.05;1.40;;;14.70;91.30;;;;;;5027925;28;20387;-79
2021/06/25 02:44:14;;;;;;;8.02;1.60;;;14.70;91.20;;;;;;5044674;28;20037;-80
2021/06/25 02:46:40;;;;;;;5.00;1.50;;;14.70;91.00;;;;;;5060936;28;20394;-79
2021/06/25 02:49:06;;;;;;;4.65;1.33;;;14.70;90.90;;;;;;5044432;28;20030;-79
2021/06/25 02:51:31;;;;;;;6.57;1.52;;;14.70;90.70;;;;;;5012399;28;20420;-80
2021/06/25 02:53:57;;;;;;;9.35;1.63;;;14.70;90.60;;;;;;5012598;28;20037;-78
2021/06/25 02:56:23;;;;;;;5.05;1.15;;;14.60;90.20;;;;;;5044170;28;20469;-78
2021/06/25 02:58:48;;;;;;;7.28;2.08;;;14.50;90.30;;;;;;5027820;28;20443;-79
2021/06/25 03:01:14;;;;;;;5.20;1.65;;;14.40;90.30;;;;;;5044355;28;20039;-80
2021/06/25 03:03:40;;;;;;;10.15;1.98;;;14.30;90.20;;;;;;5060877;28;20228;-78
2021/06/25 03:06:06;;;;;;;5.35;1.55;;;14.20;90.10;;;;;;5044053;28;20034;-80
2021/06/25 03:08:31;;;;;;;7.25;1.88;;;14.10;90.10;;;;;;5043666;28;20044;-79
2021/06/25 03:10:57;;;;;;;10.18;1.52;;;14.10;90.10;;;;;;5043936;28;20061;-79
2021/06/25 03:13:23;;;;;;;5.50;1.40;;;14.00;90.20;;;;;;5010949;28;20084;-79
2021/06/25 03:15:49;;;;;;;8.80;2.28;;;14.00;90.30;;;;;;5027209;28;20080;-81
2021/06/25 03:18:16;;;;;;;6.43;1.70;;;14.00;90.20;;;;;;5011895;28;20365;-79
2021/06/25 03:20:42;;;;;;;7.80;1.63;;;13.90;90.30;;;;;;5043849;28;20584;-79
2021/06/25 03:23:08;;;;;;;7.93;1.48;;;13.90;90.40;;;;;;5010710;28;20034;-78
2021/06/25 03:25:35;;;;;;;5.65;1.42;;;14.00;90.30;;;;;;5026971;28;20022;-78
2021/06/25 03:28:02;;;;;;;5.28;1.30;;;14.00;90.20;;;;;;5011833;28;20018;-79
2021/06/25 03:30:30;;;;;;;6.90;1.63;;;13.90;90.20;;;;;;5010626;28;20041;-79
2021/06/25 03:32:56;;;;;;;5.38;1.73;;;14.00;90.10;;;;;;5043326;28;20021;-79
2021/06/25 03:35:22;;;;;;;8.90;1.70;;;14.00;90.00;;;;;;5060259;28;20057;-80
2021/06/25 03:37:48;;;;;;;5.50;1.60;;;13.90;89.90;;;;;;5026944;28;20544;-79
2021/06/25 03:40:15;;;;;;;8.50;2.03;;;13.90;89.80;;;;;;5043399;28;20484;-79
2021/06/25 03:42:42;;;;;;;9.05;1.60;;;13.90;89.90;;;;;;5026635;28;20030;-79
2021/06/25 03:45:09;;;;;;;5.05;1.40;;;14.00;89.60;;;;;;5011686;28;20022;-79
2021/06/25 03:47:35;;;;;;;6.50;1.60;;;13.90;89.40;;;;;;5043445;28;20614;-79
2021/06/25 03:50:01;;;;;;;6.25;1.45;;;13.90;89.30;;;;;;5011728;28;20224;-80
2021/06/25 03:52:27;;;;;;;5.15;1.58;;;13.90;89.40;;;;;;5043063;28;20038;-79
2021/06/25 03:54:53;;;;;;;6.60;1.80;;;13.80;89.20;;;;;;5011272;28;20045;-79
2021/06/25 03:57:18;;;;;;;3.80;1.13;;;13.80;89.00;;;;;;5059753;28;20045;-78
2021/06/25 03:59:44;;;;;;;9.98;1.42;;;13.80;89.00;;;;;;5059960;28;20461;-79
2021/06/25 04:02:10;;;;;;;8.70;1.77;;;13.80;89.00;;;;;;5011395;28;20079;-79
2021/06/25 04:04:37;;;;;;;5.80;1.42;;;13.80;89.20;;;;;;5043104;28;20030;-78
2021/06/25 04:07:04;;;;;;;9.70;1.70;;;13.80;89.30;;;;;;5026455;28;20044;-78
2021/06/25 04:09:31;;;;;;;7.22;1.58;;;13.90;89.10;;;;;;5011632;28;20054;-78
2021/06/25 04:11:57;;;;;;;8.02;1.55;;;13.80;89.00;;;;;;5043172;28;20026;-80
2021/06/25 04:14:23;;;;;;;7.55;1.88;;;13.80;89.00;;;;;;5011429;28;20084;-79
2021/06/25 04:16:48;;;;;;;11.63;1.65;;;13.90;89.00;;;;;;5009976;28;20022;-80
2021/06/25 04:19:14;;;;;;;8.20;1.77;;;13.90;88.70;;;;;;5011441;28;20029;-79
2021/06/25 04:21:40;;;;;;;4.57;1.25;;;13.90;88.50;;;;;;5043067;28;20373;-78
2021/06/25 04:24:06;;;;;;;5.40;1.60;;;13.90;88.60;;;;;;5011267;28;20033;-79
2021/06/25 04:26:33;;;;;;;9.68;1.90;;;13.90;88.70;;;;;;5011192;28;20499;-79
2021/06/25 04:28:59;;;;;;;4.45;1.35;;;13.90;88.90;;;;;;5009990;28;20030;-78
2021/06/25 04:31:25;;;;;;;12.02;3.22;;;13.90;88.90;;;;;;5042773;28;20030;-78
2021/06/25 04:33:50;;;;;;;8.07;2.33;;;14.00;88.80;;;;;;5043018;28;20101;-78
2021/06/25 04:36:16;;;;;;;10.27;1.73;;;14.10;88.60;;;;;;5042926;28;20087;-79
2021/06/25 04:38:42;;;;;;;5.07;1.60;;;14.10;88.40;;;;;;5026197;28;20026;-79
2021/06/25 04:41:07;;;;;;;9.52;2.13;;;14.10;88.20;;;;;;5026214;28;20056;-79
2021/06/25 04:43:33;;;;;;;6.97;1.42;;;14.10;88.00;;;;;;5043175;28;20036;-78
2021/06/25 04:45:59;;;;;;;9.05;1.60;;;14.20;88.20;;;;;;5013498;28;20034;-80
2021/06/25 04:48:26;;;;;;;6.25;2.30;;;14.20;88.00;;;;;;5046387;28;20030;-81
2021/06/25 04:50:52;;;;;;;12.50;2.25;;;14.30;87.70;;;;;;5014780;28;20325;-80
2021/06/25 04:53:18;;;;;;;12.57;1.70;;;14.30;87.20;;;;;;5046709;28;20030;-79
2021/06/25 04:55:45;;;;;;;6.00;1.70;;;14.20;87.20;;;;;;5046456;28;20389;-78
2021/06/25 04:58:16;;;;;;;5.65;1.75;;;14.20;87.30;;;;;;5029546;28;20434;-79
2021/06/25 05:00:43;;;;;;;10.27;1.70;;;14.30;87.40;;;;;;5013376;28;20534;-79
2021/06/25 05:03:10;;;;;;;11.65;2.88;;;14.30;87.40;;;;;;5014969;28;20026;-77
2021/06/25 05:05:38;;;;;;;8.25;1.33;;;14.30;87.20;;;;;;5013258;28;20036;-78
2021/06/25 05:08:05;;;;;;;9.05;1.85;;;14.30;87.20;;;;;;5046307;28;20080;-81
2021/06/25 05:10:31;;;;;;;5.32;1.70;;;14.30;87.20;;;;;;5046008;28;20050;-79
2021/06/25 05:12:57;;;;;;;7.30;1.80;;;14.30;87.10;;;;;;5046289;28;20250;-78
2021/06/25 05:15:23;;;;;;;7.68;1.67;;;14.30;86.90;;;;;;5014492;28;20579;-79
2021/06/25 05:17:50;;;;;;;11.55;2.38;;;14.30;86.90;;;;;;5045955;28;20033;-80
2021/06/25 05:20:20;;;;;;;7.32;1.60;;;14.30;86.90;;;;;;5012839;28;20484;-80
2021/06/25 05:22:46;;;;;;;7.53;2.13;;;14.30;86.90;;;;;;5045987;28;20030;-79
2021/06/25 05:25:13;;;;;;;10.93;1.90;;;14.30;86.90;;;;;;5014026;28;20041;-79
2021/06/25 05:27:39;;;;;;;6.47;1.50;;;14.30;86.80;;;;;;5014290;28;20029;-80
2021/06/25 05:30:06;;;;;;;12.05;1.80;;;14.40;86.90;;;;;;5045811;28;20029;-78
2021/06/25 05:32:35;;;;;;;10.10;2.05;;;14.30;86.90;;;;;;5012848;28;20034;-78
2021/06/25 05:35:02;;;;;;;6.60;2.10;;;14.30;87.10;;;;;;5013835;28;20050;-78
2021/06/25 05:37:28;;;;;;;5.55;1.63;;;14.30;86.90;;;;;;5045669;28;20042;-79
2021/06/25 05:39:53;;;;;;;10.35;2.13;;;14.30;87.00;;;;;;5045461;28;20069;-77
2021/06/25 05:42:19;;;;;;;5.00;1.80;;;14.30;87.20;;;;;;5028829;28;20034;-78
2021/06/25 05:44:45;;;;;;;11.10;2.10;;;14.40;87.40;;;;;;5029063;28;20034;-78
2021/06/25 05:47:10;;;;;;;8.20;2.10;;;14.40;87.00;;;;;;5045378;28;20045;-79
2021/06/25 05:49:36;;;;;;;8.18;2.10;;;14.40;87.00;;;;;;5061969;28;20026;-78
2021/06/25 05:52:02;;;;;;;10.75;1.90;;;14.50;86.90;;;;;;5028791;28;20362;-77
2021/06/25 05:54:28;;;;;;;7.03;2.10;;;14.50;86.90;;;;;;5045078;28;20041;-79
2021/06/25 05:56:54;;;;;;;9.65;1.90;;;14.50;86.70;;;;;;5045123;28;20026;-78
2021/06/25 05:59:20;;;;;;;8.20;2.00;;;14.40;86.70;;;;;;5013597;28;20052;-78
2021/06/25 06:01:45;;;;;;;10.60;2.40;;;14.40;87.10;;;;;;5012071;28;20030;-76
2021/06/25 06:04:11;;;;;;;12.02;2.42;;;14.40;87.10;;;;;;5044901;28;20037;-78
2021/06/25 06:06:37;;;;;;;10.35;1.98;;;14.40;86.90;;;;;;5061880;28;20030;-79
2021/06/25 06:09:03;;;;;;;8.98;2.05;;;14.40;87.10;;;;;;5013076;28;20062;-78
2021/06/25 06:11:29;;;;;;;12.63;2.30;;;14.40;87.10;;;;;;5044861;28;20030;-78
2021/06/25 06:13:55;;;;;;;12.15;2.13;;;14.40;86.90;;;;;;5013245;28;20026;-77
2021/06/25 06:16:21;;;;;;;11.13;2.40;;;14.40;86.90;;;;;;5028195;28;20033;-77
2021/06/25 06:18:47;;;;;;;9.63;2.00;;;14.30;87.20;;;;;;5044695;28;20491;-77
2021/06/25 06:21:15;;;;;;;7.90;2.55;;;14.30;87.10;;;;;;5028013;28;20060;-79
2021/06/25 06:34:23;;;;;;;12.13;2.45;;;14.30;87.40;;;;;;5013293;28;20438;-79
2021/06/25 06:36:49;;;;;;;11.07;2.30;;;14.30;87.50;;;;;;5060978;28;20030;-78
2021/06/25 06:39:14;;;;;;;10.23;3.00;;;14.30;87.50;;;;;;5027900;28;20080;-79
2021/06/25 06:41:41;;;;;;;10.40;2.22;;;14.30;87.60;;;;;;5044055;28;20392;-78
2021/06/25 06:44:08;;;;;;;7.10;1.85;;;14.30;87.90;;;;;;5044408;28;20041;-79
2021/06/25 06:46:35;;;;;;;12.15;2.20;;;14.40;87.40;;;;;;5043905;28;20088;-73
2021/06/25 06:49:01;;;;;;;17.27;3.38;;;14.40;87.30;;;;;;5060709;28;20052;-78
2021/06/25 06:51:27;;;;;;;7.68;2.08;;;14.30;87.30;;;;;;5010777;28;20137;-80
2021/06/25 06:53:56;;;;;;;9.70;2.35;;;14.30;87.40;;;;;;5027316;28;20056;-77
2021/06/25 06:56:23;;;;;;;15.48;2.50;;;14.30;87.40;;;;;;5043782;28;20396;-76
2021/06/25 06:58:51;;;;;;;13.18;2.78;;;14.30;87.70;;;;;;5011027;28;20128;-80
2021/06/25 07:01:17;;;;;;;11.52;3.20;;;14.40;88.30;;;;;;5043204;28;20033;-77
2021/06/25 07:03:43;;;;;;;8.85;2.75;;;14.40;87.80;;;;;;5012332;28;20029;-78
2021/06/25 07:06:09;;;;;;;11.63;2.33;;;14.60;87.80;;;;;;5026883;28;20069;-78
2021/06/25 07:08:35;;;;;;;15.13;2.80;;;14.70;87.60;;;;;;5011807;28;20096;-77
2021/06/25 07:11:01;;;;;;;7.30;2.50;;;14.70;87.10;;;;;;5012038;28;20498;-77
2021/06/25 07:13:27;;;;;;;16.38;2.78;;;14.70;87.10;;;;;;5011928;28;20030;-79
2021/06/25 07:15:54;;;;;;;8.00;2.83;;;14.80;87.30;;;;;;5011879;28;20385;-69
2021/06/25 07:18:21;;;;;;;13.43;2.20;;;14.90;87.00;;;;;;5012170;28;20041;-79
2021/06/25 07:20:46;;;;;;;11.60;2.60;;;14.90;86.80;;;;;;5043727;28;20168;-76
2021/06/25 07:23:12;;;;;;;12.40;3.28;;;15.00;86.60;;;;;;5043666;28;20116;-77
2021/06/25 07:25:38;;;;;;;16.85;2.92;;;15.00;86.40;;;;;;5043666;28;20044;-78
2021/06/25 07:28:04;;;;;;;17.55;3.33;;;15.00;86.20;;;;;;5043351;28;20026;-78
2021/06/25 07:30:30;;;;;;;13.57;2.45;;;15.00;86.40;;;;;;5026905;28;20065;-78
2021/06/25 07:32:56;;;;;;;14.30;2.28;;;15.00;86.30;;;;;;5043470;28;20108;-78
2021/06/25 07:35:21;;;;;;;11.90;2.42;;;15.00;86.40;;;;;;5011586;28;20053;-79
2021/06/25 07:37:47;;;;;;;19.73;2.45;;;15.00;86.40;;;;;;5043106;28;20022;-76
2021/06/25 07:40:13;;;;;;;9.10;2.03;;;15.00;86.40;;;;;;5010263;28;20060;-78
2021/06/25 07:42:39;;;;;;;16.55;2.72;;;15.10;86.40;;;;;;5043228;28;20037;-78
2021/06/25 07:45:10;;;;;;;10.30;1.98;;;15.00;86.10;;;;;;5011303;28;20380;-79
2021/06/25 07:47:38;;;;;;;6.80;2.10;;;15.00;86.10;;;;;;5009978;28;20033;-77
2021/06/25 07:50:06;;;;;;;10.25;2.25;;;15.10;86.10;;;;;;5011015;28;20041;-78
2021/06/25 07:52:32;;;;;;;11.18;2.75;;;15.10;85.90;;;;;;5010925;28;20033;-79
2021/06/25 07:54:58;;;;;;;10.05;2.60;;;15.20;86.00;;;;;;5059548;28;20174;-78
2021/06/25 07:57:24;;;;;;;9.80;2.30;;;15.20;85.70;;;;;;5042562;28;20129;-77
2021/06/25 07:59:50;;;;;;;11.73;1.95;;;15.30;85.60;;;;;;5042724;28;20102;-80
2021/06/25 08:02:15;;;;;;;13.35;2.92;;;15.30;85.60;;;;;;5042609;28;20037;-77
2021/06/25 08:04:47;;;;;;;10.98;2.63;;;15.30;85.50;;;;;;5009261;28;20396;-79
2021/06/25 08:07:13;;;;;;;10.57;2.15;;;15.30;85.10;;;;;;5042198;28;20426;-78
2021/06/25 08:09:40;;;;;;;11.57;2.17;;;15.30;85.10;;;;;;5025860;28;20099;-79
2021/06/25 08:12:07;;;;;;;11.75;2.33;;;15.40;85.10;;;;;;5025486;28;20033;-79
2021/06/25 08:14:32;;;;;;;9.27;2.13;;;15.40;84.90;;;;;;5010790;28;20022;-79
2021/06/25 08:16:58;;;;;;;9.20;2.20;;;15.50;84.80;;;;;;5010637;28;20100;-77
2021/06/25 08:19:24;;;;;;;14.98;2.78;;;15.60;84.80;;;;;;5044283;28;20125;-76
2021/06/25 08:21:50;;;;;;;16.17;2.67;;;15.60;84.50;;;;;;5046751;28;20034;-79
2021/06/25 08:24:16;;;;;;;9.30;2.13;;;15.60;84.30;;;;;;5046409;28;20037;-78
2021/06/25 08:26:41;;;;;;;9.98;2.50;;;15.60;84.70;;;;;;5029806;28;20026;-79
2021/06/25 08:29:07;;;;;;;11.40;2.40;;;15.70;84.70;;;;;;5046791;28;20297;-76
2021/06/25 08:31:33;;;;;;;7.25;1.83;;;15.80;84.50;;;;;;5046348;28;20034;-77
2021/06/25 08:33:59;;;;;;;9.82;2.10;;;15.90;84.30;;;;;;5046587;28;20034;-78
2021/06/25 08:36:25;;;;;;;10.43;2.08;;;16.00;84.00;;;;;;5046620;28;20033;-78
2021/06/25 08:38:51;;;;;;;9.93;2.58;;;16.00;83.60;;;;;;5046480;28;20053;-77
2021/06/25 08:41:18;;;;;;;7.80;1.65;;;16.00;83.60;;;;;;5046361;28;20026;-77
2021/06/25 08:43:44;;;;;;;8.43;2.13;;;16.10;83.30;;;;;;5046113;28;20045;-77
2021/06/25 08:46:10;;;;;;;7.07;1.75;;;16.20;83.00;;;;;;5014724;28;20033;-78
2021/06/25 08:48:37;;;;;;;10.25;3.15;;;16.20;82.60;;;;;;5029577;28;20034;-77
2021/06/25 08:51:06;;;;;;;11.77;2.45;;;16.10;82.30;;;;;;5012880;28;20033;-78
2021/06/25 08:53:32;;;;;;;10.60;1.80;;;16.00;82.30;;;;;;5014186;28;20366;-78
2021/06/25 08:55:58;;;;;;;16.92;2.60;;;16.00;82.40;;;;;;5013924;28;20144;-77
2021/06/25 08:58:24;;;;;;;10.45;2.45;;;16.00;82.20;;;;;;5014125;28;20033;-79
2021/06/25 09:00:51;;;;;;;12.07;2.53;;;16.00;82.00;;;;;;5014101;28;20030;-78
2021/06/25 09:03:24;;;;;;;15.65;2.30;;;16.00;81.70;;;;;;5014054;28;20018;-79
2021/06/25 09:05:51;;;;;;;5.75;1.90;;;16.00;81.60;;;;;;5016083;28;20025;-78
2021/06/25 09:08:28;;;;;;;8.70;1.77;;;16.00;81.60;;;;;;5064114;28;20531;-78
2021/06/25 09:10:58;;;;;;;9.82;1.90;;;15.90;81.40;;;;;;5015043;28;20029;-78
2021/06/25 09:13:38;;;;;;;4.95;1.88;;;15.90;81.40;;;;;;5037407;28;20022;-77
2021/06/25 09:16:28;;;;;;;9.55;1.80;;;15.90;81.30;;;;;;5009253;28;20030;-77
2021/06/25 09:19:07;;;;;;;10.95;1.92;;;15.90;81.50;;;;;;5025711;28;20034;-78
2021/06/25 09:21:44;;;;;;;8.82;2.15;;;15.90;81.50;;;;;;5016108;28;20060;-78
2021/06/25 09:24:18;;;;;;;9.30;1.98;;;16.00;81.20;;;;;;5015672;28;20025;-78
2021/06/25 09:26:46;;;;;;;14.25;2.10;;;16.00;81.30;;;;;;5009231;28;20026;-78
2021/06/25 09:29:19;;;;;;;10.60;1.73;;;16.00;81.40;;;;;;5013158;28;20380;-78
2021/06/25 09:31:54;;;;;;;11.55;2.55;;;16.00;81.20;;;;;;5013986;28;20049;-79
2021/06/25 09:34:42;;;;;;;4.57;1.58;;;16.10;81.30;;;;;;5013862;28;20022;-78
2021/06/25 09:37:12;;;;;;;6.07;2.08;;;16.00;80.60;;;;;;5015653;28;20066;-78
2021/06/25 09:39:42;;;;;;;8.00;2.10;;;16.00;80.50;;;;;;5015845;28;20033;-78
2021/06/25 09:42:20;;;;;;;9.65;2.42;;;15.90;80.40;;;;;;5015627;28;20030;-79
2021/06/25 09:45:08;;;;;;;11.70;2.35;;;15.90;80.70;;;;;;5030496;28;20038;-79
2021/06/25 09:47:39;;;;;;;8.32;2.33;;;15.90;80.40;;;;;;5047272;28;20045;-78
2021/06/25 09:50:06;;;;;;;7.55;2.40;;;15.90;80.30;;;;;;5047639;28;20094;-79
2021/06/25 09:53:04;;;;;;;7.28;1.92;;;15.90;80.50;;;;;;5015651;28;20038;-80
2021/06/25 09:55:52;;;;;;;15.15;2.65;;;15.90;80.40;;;;;;5015020;28;20019;-80
2021/06/25 10:04:02;;;;;;;19.45;2.28;;;15.90;80.40;;;;;;5015355;28;20388;-79
2021/06/25 10:06:33;;;;;;;7.78;1.83;;;16.00;80.40;;;;;;5046601;28;20018;-79
2021/06/25 10:08:59;;;;;;;10.23;2.08;;;16.00;80.50;;;;;;5013608;28;20512;-80
2021/06/25 10:11:28;;;;;;;7.07;2.10;;;16.20;81.10;;;;;;5047215;28;20137;-78
2021/06/25 10:13:58;;;;;;;13.38;2.65;;;16.40;80.40;;;;;;5047215;28;20029;-77
2021/06/25 10:16:25;;;;;;;8.90;1.80;;;16.50;79.90;;;;;;5014912;28;20082;-78
2021/06/25 10:18:52;;;;;;;8.48;1.80;;;16.50;79.60;;;;;;5046415;28;20053;-78
2021/06/25 10:21:22;;;;;;;8.75;1.55;;;16.60;79.30;;;;;;5013903;28;20447;-78
2021/06/25 10:23:51;;;;;;;12.63;1.70;;;16.50;79.10;;;;;;5014064;28;20121;-79
2021/06/25 10:26:18;;;;;;;10.90;2.10;;;16.50;79.20;;;;;;5014988;28;20049;-77
2021/06/25 10:28:45;;;;;;;7.35;1.70;;;16.50;78.80;;;;;;5063663;28;20033;-75
2021/06/25 10:31:14;;;;;;;6.28;1.58;;;16.50;78.90;;;;;;5013789;28;20040;-78
2021/06/25 10:33:41;;;;;;;10.52;2.40;;;16.40;78.70;;;;;;5047212;28;20195;-78
2021/06/25 10:36:10;;;;;;;9.18;2.08;;;16.30;78.50;;;;;;5013590;28;20026;-78
2021/06/25 10:38:38;;;;;;;9.67;2.20;;;16.20;78.80;;;;;;5014902;28;20018;-80
2021/06/25 10:41:07;;;;;;;8.77;2.25;;;16.30;78.70;;;;;;5012913;28;20104;-80
2021/06/25 10:43:50;;;;;;;4.23;1.30;;;16.20;78.70;;;;;;5046390;28;20026;-78
2021/06/25 10:46:34;;;;;;;11.40;2.05;;;16.30;78.90;;;;;;5014740;28;20026;-80
2021/06/25 10:49:07;;;;;;;6.60;1.58;;;16.30;78.70;;;;;;5014726;28;20097;-78
2021/06/25 10:51:35;;;;;;;6.35;1.70;;;16.40;78.40;;;;;;5014337;28;20168;-78
2021/06/25 10:54:16;;;;;;;6.80;2.10;;;16.40;78.30;;;;;;5029392;28;20456;-78
2021/06/25 10:56:49;;;;;;;8.07;1.50;;;16.50;78.40;;;;;;5045972;28;20139;-78
2021/06/25 10:59:29;;;;;;;6.70;2.38;;;16.60;78.40;;;;;;5046388;28;20026;-79
2021/06/25 11:02:00;;;;;;;4.47;1.83;;;16.60;77.90;;;;;;5013674;28;20072;-80
2021/06/25 11:04:40;;;;;;;5.68;1.50;;;16.60;77.80;;;;;;5013986;28;20076;-80
2021/06/25 11:07:16;;;;;;;7.50;1.95;;;16.60;77.40;;;;;;5013693;28;20021;-79
2021/06/25 11:10:05;;;;;;;5.35;1.40;;;16.50;77.20;;;;;;5009666;28;20088;-78
2021/06/25 11:12:33;;;;;;;7.13;1.30;;;16.40;77.40;;;;;;5029168;28;20105;-79
2021/06/25 11:15:05;;;;;;;5.68;1.55;;;16.30;77.50;;;;;;5012110;28;20026;-79
2021/06/25 11:17:50;;;;;;;8.30;2.05;;;16.30;77.70;;;;;;5013483;28;20033;-79
2021/06/25 11:20:21;;;;;;;5.82;1.02;;;16.30;77.80;;;;;;5045612;28;20024;-79
2021/06/25 11:22:54;;;;;;;7.18;1.60;;;16.30;77.60;;;;;;5013248;28;20643;-80
2021/06/25 11:25:51;;;;;;;9.45;2.40;;;16.30;77.50;;;;;;5011947;28;20117;-78
2021/06/25 11:28:37;;;;;;;5.68;1.55;;;16.40;77.70;;;;;;5011679;28;20026;-76
2021/06/25 11:31:07;;;;;;;8.02;1.70;;;16.50;77.70;;;;;;5013498;28;20045;-79
2021/06/25 11:33:34;;;;;;;5.40;1.38;;;16.60;77.70;;;;;;5045581;28;20026;-79
2021/06/25 11:36:44;;;;;;;7.43;2.03;;;16.70;77.70;;;;;;5012294;28;20033;-79
2021/06/25 11:39:29;;;;;;;8.68;2.28;;;16.80;77.20;;;;;;5012255;28;20033;-80
2021/06/25 11:41:58;;;;;;;8.68;2.08;;;16.90;77.10;;;;;;5045658;28;20105;-81
2021/06/25 11:44:26;;;;;;;12.38;1.63;;;17.00;76.90;;;;;;5045045;28;20064;-79
2021/06/25 11:47:03;;;;;;;7.88;1.95;;;17.10;76.50;;;;;;5045297;28;20065;-79
2021/06/25 11:49:44;;;;;;;7.40;1.05;;;17.00;76.40;;;;;;5013522;28;20548;-80
2021/06/25 11:52:14;;;;;;;4.65;1.30;;;17.10;76.40;;;;;;5012112;28;20223;-79
2021/06/25 11:54:42;;;;;;;5.57;1.30;;;17.10;76.10;;;;;;5013295;28;20026;-80
2021/06/25 11:57:36;;;;;;;7.43;1.88;;;17.10;76.10;;;;;;5013265;28;20033;-81
2021/06/25 12:00:11;;;;;;;8.55;1.63;;;17.00;76.00;;;;;;5010931;28;20073;-80
2021/06/25 12:02:46;;;;;;;3.60;1.20;;;17.00;76.00;;;;;;5044165;28;20420;-80
2021/06/25 12:05:14;;;;;;;7.13;2.40;;;17.10;76.10;;;;;;5044995;28;20048;-78
2021/06/25 12:07:40;;;;;;;3.30;1.02;;;17.10;76.00;;;;;;5045266;28;20030;-79
2021/06/25 12:10:06;;;;;;;5.03;1.38;;;17.10;75.70;;;;;;5044951;28;20671;-79
2021/06/25 12:12:37;;;;;;;9.32;1.73;;;17.10;75.50;;;;;;5013690;28;20107;-80
2021/06/25 12:15:07;;;;;;;3.80;1.10;;;17.00;75.50;;;;;;5012231;28;20364;-79
2021/06/25 12:17:48;;;;;;;4.72;1.73;;;17.00;75.40;;;;;;5044767;28;20519;-79
2021/06/25 12:20:29;;;;;;;8.95;1.58;;;17.00;75.20;;;;;;5012661;28;20365;-78
2021/06/25 12:22:56;;;;;;;8.90;1.90;;;17.00;75.20;;;;;;5010261;28;20026;-78
2021/06/25 12:25:42;;;;;;;6.30;1.20;;;17.00;75.20;;;;;;5012004;28;20329;-80
2021/06/25 12:28:19;;;;;;;5.38;1.50;;;17.00;75.20;;;;;;4999549;28;20030;-78
2021/06/25 12:31:00;;;;;;;7.20;1.38;;;17.10;75.10;;;;;;5033843;28;20038;-78
2021/06/25 12:33:32;;;;;;;3.25;1.25;;;17.20;75.10;;;;;;5027738;28;20038;-78
2021/06/25 12:35:59;;;;;;;10.90;1.83;;;17.40;75.10;;;;;;5044268;28;20029;-77
2021/06/25 12:38:28;;;;;;;6.30;1.60;;;17.50;74.80;;;;;;5011772;28;20025;-78
2021/06/25 12:41:05;;;;;;;4.28;1.35;;;17.50;74.30;;;;;;5012978;28;20026;-81
2021/06/25 12:43:35;;;;;;;6.40;2.13;;;17.50;73.90;;;;;;5013191;28;20114;-78
2021/06/25 12:46:12;;;;;;;3.30;1.17;;;17.60;73.80;;;;;;5011531;28;20025;-77
2021/06/25 12:48:49;;;;;;;2.92;1.35;;;17.50;73.70;;;;;;5013126;28;20033;-79
2021/06/25 12:51:27;;;;;;;7.82;1.60;;;17.60;73.80;;;;;;5012864;28;20036;-77
2021/06/25 12:53:57;;;;;;;3.25;1.17;;;17.60;73.40;;;;;;5043819;28;20022;-78
2021/06/25 12:56:24;;;;;;;7.97;1.30;;;17.50;73.30;;;;;;5010895;28;20027;-79
2021/06/25 12:59:24;;;;;;;4.53;1.17;;;17.50;73.50;;;;;;5012056;28;20033;-79
2021/06/25 13:01:55;;;;;;;5.32;1.33;;;17.40;73.20;;;;;;5006360;28;20034;-79
2021/06/25 13:04:41;;;;;;;4.70;1.15;;;17.40;73.30;;;;;;5012104;28;20084;-80
2021/06/25 13:07:08;;;;;;;2.40;1.00;;;17.40;73.40;;;;;;5016397;28;20049;-79